Impacts TAF Board INFO
FOR SITUATIONAL AWARENESS. NOT TO BE USED FOR FLIGHT PLANNING PURPOSES.
IDs:

KATL - Atlanta/Hartsfield-J, GA, US

Issued at 1530 UTC 11 Dec 2017
Updated at 1710 UTC 11 Dec 2017
Potential Impact None Slight Moderate High
Time1652Z 11/18Z 11/19Z 11/20Z 11/21Z 11/22Z 11/23Z 12/00Z 12/01Z 12/02Z 12/03Z 12/04Z 12/05Z 12/06Z>>
Type OBS PRVL PRVL PRVL PRVL PRVL PRVL PRVL PRVL PRVL PRVL PRVL PRVL PRVL
VIS 10 >6 >6 >6 >6 >6 >6 >6 >6 >6 >6 >6 >6 >6
CIG -- -- -- -- -- -- -- -- -- -- -- -- -- --
Cover CLR SKC SKC SKC SKC SKC FEW FEW FEW FEW FEW FEW FEW FEW
FltCat VFR VFR VFR VFR VFR VFR VFR VFR VFR VFR VFR VFR VFR VFR
WX -- -- -- -- -- -- -- -- -- -- -- -- -- --
WDir VRB 240 240 240 240 240 230 230 230 230 230 230 230 230
WSpd 0 8 8 8 8 8 7 7 7 7 7 7 7 7
WGst -- -- -- -- -- -- -- -- -- -- -- -- -- --

Raw TAF
KATL 111530Z 1116/1218 27008KT P6SM SKC
  FM111800 24008KT P6SM SKC
  FM112300 23007KT P6SM FEW250
  FM121200 30012G20KT P6SM BKN200
  FM121400 31017G28KT P6SM SCT030 SCT200


Raw METAR
KATL 111652Z 00000KT 10SM CLR 11/01 A3015 RMK AO2 SLP215 T01060006
KATL 111552Z 24008KT 10SM CLR 09/M01 A3019 RMK AO2 SLP227 T00891006
KATL 111452Z 28007KT 10SM CLR 06/M01 A3019 RMK AO2 SLP228 T00611006 53001

METAR Board
Radar Display
Forecast Discussion

FOR SITUATIONAL AWARENESS. NOT TO BE USED FOR FLIGHT PLANNING PURPOSES.